createdAt,value
2022-10-09T00:01:14.177Z,1.48
2022-10-09T00:03:43.812Z,1.50
2022-10-09T00:06:12.341Z,1.05
2022-10-09T00:08:41.017Z,1.48
2022-10-09T00:11:09.980Z,1.45
2022-10-09T00:13:37.711Z,1.50
2022-10-09T00:16:09.567Z,1.60
2022-10-09T00:18:37.061Z,2.08
2022-10-09T00:21:05.668Z,2.17
2022-10-09T00:23:32.830Z,1.30
2022-10-09T00:26:01.903Z,1.88
2022-10-09T00:28:34.222Z,1.52
2022-10-09T00:31:07.912Z,1.50
2022-10-09T00:33:36.145Z,2.15
2022-10-09T00:36:09.152Z,2.10
2022-10-09T00:38:36.394Z,1.80
2022-10-09T00:41:03.064Z,2.17
2022-10-09T00:43:47.820Z,2.40
2022-10-09T00:46:35.325Z,2.38
2022-10-09T00:49:08.144Z,1.85
2022-10-09T00:51:35.342Z,2.20
2022-10-09T00:54:09.046Z,2.00
2022-10-09T00:56:35.729Z,2.17
2022-10-09T00:59:03.672Z,2.55
2022-10-09T01:01:30.553Z,2.40
2022-10-09T01:03:57.262Z,2.30
2022-10-09T01:06:47.144Z,2.90
2022-10-09T01:09:18.817Z,2.60
2022-10-09T01:11:49.404Z,2.75
2022-10-09T01:14:25.164Z,2.42
2022-10-09T01:17:08.156Z,2.25
2022-10-09T01:19:46.013Z,2.30
2022-10-09T01:22:30.850Z,2.00
2022-10-09T01:25:11.330Z,2.38
2022-10-09T01:27:38.597Z,2.08
2022-10-09T01:30:09.016Z,2.42
2022-10-09T01:32:39.580Z,1.52
2022-10-09T01:35:08.608Z,1.70
2022-10-09T01:37:37.017Z,1.70
2022-10-09T01:40:05.010Z,2.00
2022-10-09T01:42:32.493Z,1.60
2022-10-09T01:44:59.179Z,2.13
2022-10-09T01:47:26.217Z,2.13
2022-10-09T01:50:20.405Z,1.92
2022-10-09T01:52:53.457Z,1.70
2022-10-09T01:55:43.719Z,1.80
2022-10-09T01:58:22.086Z,1.70
2022-10-09T02:01:07.768Z,1.92
2022-10-09T02:03:36.627Z,1.70
2022-10-09T02:06:08.643Z,2.00
2022-10-09T02:08:37.430Z,1.80
2022-10-09T02:11:05.221Z,2.03
2022-10-09T02:13:34.611Z,1.90
2022-10-09T02:16:01.309Z,1.65
2022-10-09T02:19:03.392Z,1.83
2022-10-09T02:22:09.634Z,1.60
2022-10-09T02:24:38.332Z,2.22
2022-10-09T02:27:06.199Z,1.67
2022-10-09T02:29:33.351Z,1.88
2022-10-09T02:32:00.278Z,1.95
2022-10-09T02:34:27.000Z,1.73
2022-10-09T02:36:53.570Z,1.70
2022-10-09T02:39:20.206Z,1.60
2022-10-09T02:41:46.920Z,2.10
2022-10-09T02:44:13.945Z,1.92
2022-10-09T02:46:40.976Z,2.25
2022-10-09T02:49:07.649Z,2.50
2022-10-09T02:51:38.776Z,1.90
2022-10-09T02:54:06.099Z,2.30
2022-10-09T02:56:37.975Z,2.35
2022-10-09T02:59:05.578Z,1.90
2022-10-09T03:01:32.409Z,2.10
2022-10-09T03:03:59.255Z,1.63
2022-10-09T03:06:27.486Z,2.08
2022-10-09T03:08:55.452Z,1.95
2022-10-09T03:11:24.405Z,2.08
2022-10-09T03:21:52.520Z,2.20
2022-10-09T03:24:19.799Z,2.20
2022-10-09T03:26:46.442Z,2.10
2022-10-09T03:29:13.085Z,2.10
2022-10-09T03:31:51.842Z,1.90
2022-10-09T03:34:19.893Z,1.90
2022-10-09T03:36:46.795Z,1.73
2022-10-09T03:39:13.569Z,1.70
2022-10-09T07:30:53.022Z,1.50
2022-10-09T07:33:20.321Z,1.30
2022-10-09T07:35:54.763Z,1.27
2022-10-09T07:38:21.749Z,1.65
2022-10-09T07:40:48.836Z,1.38
2022-10-09T07:43:16.077Z,1.20
2022-10-09T07:45:43.327Z,1.13
2022-10-09T07:48:10.017Z,1.10
2022-10-09T07:50:36.711Z,1.40
2022-10-09T07:53:03.714Z,1.13
2022-10-09T07:55:30.322Z,1.10
2022-10-09T07:57:57.159Z,1.10
2022-10-09T08:00:23.754Z,1.20
2022-10-09T08:02:50.669Z,0.80
2022-10-09T08:05:17.511Z,1.00
2022-10-09T08:07:44.067Z,1.10
2022-10-09T08:10:10.876Z,1.13
2022-10-09T08:12:37.432Z,1.20
2022-10-09T08:15:04.341Z,1.00
2022-10-09T08:17:30.881Z,0.95
2022-10-09T08:19:58.344Z,1.30
2022-10-09T08:22:24.990Z,0.90
2022-10-09T08:24:51.628Z,1.00
2022-10-09T08:27:18.260Z,0.88
2022-10-09T08:29:44.832Z,1.08
2022-10-09T08:32:11.428Z,1.10
2022-10-09T08:34:38.061Z,1.00
2022-10-09T08:37:04.650Z,1.20
2022-10-09T08:39:32.302Z,0.80
2022-10-09T08:42:01.769Z,1.05
2022-10-09T08:44:33.408Z,0.85
2022-10-09T08:47:24.277Z,0.93
2022-10-09T08:52:41.337Z,0.63
2022-10-09T08:55:24.045Z,0.73
2022-10-09T08:57:53.830Z,0.70
2022-10-09T09:00:27.396Z,0.50
2022-10-09T09:03:02.964Z,1.00
2022-10-09T09:06:05.072Z,0.70
2022-10-09T09:08:42.244Z,0.63
2022-10-09T09:11:22.514Z,1.05
2022-10-09T09:14:03.453Z,0.57
2022-10-09T09:16:54.885Z,0.90
2022-10-09T09:19:24.313Z,0.55
2022-10-09T09:21:52.553Z,0.50
2022-10-09T09:24:21.595Z,0.70
2022-10-09T09:26:52.751Z,0.52
2022-10-09T09:29:23.353Z,0.30
2022-10-09T09:34:35.494Z,0.77
2022-10-09T09:37:02.356Z,0.50
2022-10-09T09:40:24.285Z,0.40
2022-10-09T09:42:20.561Z,0.73
2022-10-09T09:45:10.691Z,0.77
2022-10-09T09:47:45.354Z,0.40
2022-10-09T09:50:28.545Z,0.65
2022-10-09T09:53:04.420Z,0.60
2022-10-09T09:55:33.548Z,0.60
2022-10-09T09:58:03.155Z,0.63
2022-10-09T10:00:30.165Z,0.30
2022-10-09T10:03:23.702Z,0.40
2022-10-09T10:05:51.671Z,0.45
2022-10-09T10:08:24.167Z,0.85
2022-10-09T10:10:53.649Z,0.52
2022-10-09T10:13:23.259Z,0.50
2022-10-09T10:15:55.446Z,0.47
2022-10-09T10:18:25.103Z,0.30
2022-10-09T10:20:57.862Z,0.50
2022-10-09T10:23:39.510Z,0.30
2022-10-09T10:26:28.555Z,0.30
2022-10-09T10:29:01.566Z,0.40
2022-10-09T10:31:57.704Z,0.55
2022-10-09T10:34:30.889Z,0.20
2022-10-09T10:37:05.111Z,0.30
2022-10-09T10:39:45.500Z,0.50
2022-10-09T10:42:44.919Z,0.77
2022-10-09T10:45:28.038Z,0.35
2022-10-09T10:47:58.392Z,0.68
2022-10-09T10:50:30.803Z,0.45
2022-10-09T10:53:15.426Z,0.20
2022-10-09T10:55:55.160Z,0.25
2022-10-09T10:58:30.419Z,0.30
2022-10-09T11:01:09.299Z,0.75
2022-10-09T11:03:53.200Z,0.32
2022-10-09T11:06:31.652Z,0.30
2022-10-09T11:09:02.651Z,0.47
2022-10-09T11:12:19.589Z,0.45
2022-10-09T11:15:08.564Z,0.10
2022-10-09T11:17:55.421Z,0.20
2022-10-09T11:20:46.254Z,0.32
2022-10-09T11:23:49.769Z,0.10
2022-10-09T11:26:43.417Z,0.10
2022-10-09T11:29:21.385Z,0.30
2022-10-09T11:31:53.021Z,0.10
2022-10-09T11:34:37.510Z,0.15
2022-10-09T11:37:08.988Z,0.10
2022-10-09T11:39:37.893Z,0.10
2022-10-09T11:42:05.783Z,0.20
2022-10-09T11:45:04.441Z,0.77
2022-10-09T11:47:49.532Z,0.10
2022-10-09T11:51:00.995Z,0.20
2022-10-09T11:53:31.622Z,0.20
2022-10-09T11:56:06.363Z,0.10
2022-10-09T11:58:33.288Z,0.10
2022-10-09T12:01:24.142Z,0.40
2022-10-09T12:04:03.536Z,0.40
2022-10-09T12:06:30.994Z,0.10
2022-10-09T12:09:08.016Z,0.10
2022-10-09T12:11:34.887Z,0.20
2022-10-09T12:14:07.475Z,0.25
2022-10-09T12:16:45.993Z,0.10
2022-10-09T12:19:21.643Z,0.20
2022-10-09T12:22:07.901Z,0.13
2022-10-09T12:24:40.786Z,0.15
2022-10-09T12:27:08.658Z,0.15
2022-10-09T12:29:54.693Z,0.20
2022-10-09T12:32:35.419Z,0.10
2022-10-09T12:35:12.454Z,0.22
2022-10-09T12:37:38.959Z,0.45
2022-10-09T12:40:15.202Z,0.10
2022-10-09T12:42:42.920Z,0.10
2022-10-09T12:45:17.408Z,0.10
2022-10-09T12:47:44.071Z,0.20
2022-10-09T12:50:16.776Z,0.15
2022-10-09T12:52:52.846Z,0.10
2022-10-09T12:55:29.493Z,0.10
2022-10-09T12:57:59.482Z,0.10
2022-10-09T13:00:26.109Z,0.00
2022-10-09T13:02:53.032Z,0.10
2022-10-09T13:05:20.089Z,0.20
2022-10-09T13:07:52.759Z,0.00
2022-10-09T13:10:22.857Z,0.28
2022-10-09T13:12:53.396Z,0.10
2022-10-09T13:15:27.363Z,0.10
2022-10-09T13:17:53.892Z,0.20
2022-10-09T13:20:32.431Z,0.03
2022-10-09T13:23:04.885Z,0.20
2022-10-09T13:25:40.483Z,0.10
2022-10-09T13:28:07.448Z,0.10
2022-10-09T13:30:34.316Z,0.20
2022-10-09T13:33:00.930Z,0.30
2022-10-09T13:35:27.463Z,0.28
2022-10-09T13:37:54.135Z,0.10
2022-10-09T13:40:21.978Z,0.10
2022-10-09T13:43:01.108Z,0.30
2022-10-09T13:45:27.798Z,0.10
2022-10-09T13:47:54.431Z,0.10
2022-10-09T13:50:21.112Z,0.10
2022-10-09T13:52:47.710Z,0.20
2022-10-09T13:55:15.533Z,0.10
2022-10-09T13:57:42.137Z,0.10
2022-10-09T14:00:09.363Z,0.10
2022-10-09T14:02:39.006Z,0.08
2022-10-09T14:05:06.032Z,0.45
2022-10-09T14:07:32.600Z,0.20
2022-10-09T14:09:59.293Z,0.10
2022-10-09T14:12:25.901Z,0.30
2022-10-09T14:14:55.666Z,0.10
2022-10-09T14:17:23.724Z,0.20
2022-10-09T14:19:50.290Z,0.03
2022-10-09T14:22:16.948Z,0.10
2022-10-09T14:24:43.706Z,0.40
2022-10-09T14:27:10.669Z,0.20
2022-10-09T14:29:40.174Z,0.13
2022-10-09T14:32:06.748Z,0.10
2022-10-09T14:34:33.321Z,0.20
2022-10-09T14:36:59.959Z,0.20
2022-10-09T14:39:26.564Z,0.75
2022-10-09T14:41:53.168Z,0.20
2022-10-09T14:44:19.652Z,0.10
2022-10-09T14:46:46.173Z,0.10
2022-10-09T14:49:12.639Z,0.65
2022-10-09T14:51:40.596Z,0.30
2022-10-09T14:54:08.003Z,0.20
2022-10-09T14:56:35.620Z,0.30
2022-10-09T14:59:02.303Z,0.10
2022-10-09T15:01:29.646Z,0.30
2022-10-09T15:03:56.551Z,0.40
2022-10-09T15:06:27.680Z,0.20
2022-10-09T15:09:00.383Z,0.20
2022-10-09T15:11:30.040Z,0.15
2022-10-09T15:13:57.187Z,0.28
2022-10-09T15:16:24.451Z,0.47
2022-10-09T15:18:53.168Z,0.20
2022-10-09T15:21:24.714Z,0.20
2022-10-09T15:23:54.820Z,0.20
2022-10-09T15:26:23.952Z,0.20
2022-10-09T15:28:50.731Z,0.20
2022-10-09T15:31:38.074Z,0.25
2022-10-09T15:34:05.859Z,0.20
2022-10-09T15:36:34.935Z,0.38
2022-10-09T15:39:05.709Z,0.20
2022-10-09T15:41:35.770Z,0.32
2022-10-09T15:44:22.634Z,0.40
2022-10-09T15:46:49.766Z,0.30
2022-10-09T15:49:16.688Z,0.20
2022-10-09T15:51:43.572Z,0.38
2022-10-09T15:54:11.181Z,0.50
2022-10-09T15:56:40.059Z,0.40
2022-10-09T15:59:10.463Z,0.30
2022-10-09T16:01:37.395Z,0.43
2022-10-09T16:04:04.244Z,0.50
2022-10-09T16:06:31.044Z,0.57
2022-10-09T16:08:58.512Z,0.40
2022-10-09T16:11:26.619Z,0.50
2022-10-09T16:13:54.085Z,0.50
2022-10-09T16:16:23.789Z,0.30
2022-10-09T16:18:52.683Z,0.40
2022-10-09T16:21:22.288Z,0.30
2022-10-09T16:23:49.241Z,0.63
2022-10-09T16:26:18.941Z,0.52
2022-10-09T16:28:46.671Z,1.05
2022-10-09T16:31:31.304Z,0.45
2022-10-09T16:33:58.444Z,0.98
2022-10-09T16:36:25.059Z,0.60
2022-10-09T16:38:51.594Z,0.63
2022-10-09T16:41:20.723Z,0.80
2022-10-09T16:43:51.585Z,0.70
2022-10-09T16:46:25.261Z,0.70
2022-10-09T16:48:53.654Z,0.52
2022-10-09T16:51:26.637Z,0.50
2022-10-09T16:53:55.558Z,0.60
2022-10-09T16:56:25.244Z,0.60
2022-10-09T16:58:55.701Z,0.60
2022-10-09T17:01:22.682Z,0.55
2022-10-09T17:03:49.423Z,0.50
2022-10-09T17:06:20.951Z,0.70
2022-10-09T17:08:48.130Z,0.70
2022-10-09T17:11:15.985Z,0.30
2022-10-09T17:13:43.676Z,0.80
2022-10-09T17:16:18.237Z,0.50
2022-10-09T17:18:45.970Z,0.40
2022-10-09T17:21:14.320Z,0.50
2022-10-09T17:23:41.085Z,0.95
2022-10-09T17:26:12.767Z,1.90
2022-10-09T17:28:40.510Z,2.47
2022-10-09T17:31:10.521Z,2.95
2022-10-09T17:33:41.269Z,2.60
2022-10-09T17:38:35.189Z,2.30
2022-10-09T17:41:07.081Z,3.40
2022-10-09T17:43:34.077Z,2.60
2022-10-09T17:46:01.311Z,2.75
2022-10-09T17:48:29.142Z,1.80
2022-10-09T17:50:57.614Z,1.65
2022-10-09T17:53:25.013Z,1.70
2022-10-09T17:55:54.094Z,1.33
2022-10-09T17:58:21.666Z,1.30
2022-10-09T18:00:49.275Z,1.50
2022-10-09T18:03:16.760Z,1.30
2022-10-09T18:05:45.547Z,1.42
2022-10-09T18:08:13.111Z,1.55
2022-10-09T18:10:40.202Z,1.20
2022-10-09T18:13:08.387Z,1.00
2022-10-09T18:15:39.109Z,1.10
2022-10-09T18:20:37.887Z,0.98
2022-10-09T18:23:04.953Z,0.80
2022-10-09T18:25:31.512Z,0.88
2022-10-09T18:27:58.221Z,1.20
2022-10-09T18:30:24.869Z,0.50
2022-10-09T18:32:51.739Z,0.60
2022-10-09T18:35:18.735Z,0.90
2022-10-09T18:37:45.346Z,0.90
2022-10-09T18:40:13.450Z,0.80
2022-10-09T18:42:39.994Z,0.60
2022-10-09T18:45:07.529Z,1.00
2022-10-09T18:47:35.583Z,0.75
2022-10-09T18:50:09.043Z,0.80
2022-10-09T18:52:37.354Z,1.00
2022-10-09T18:55:06.235Z,0.95
2022-10-09T18:57:34.175Z,1.10
2022-10-09T19:00:02.057Z,1.00
2022-10-09T19:02:28.707Z,0.93
2022-10-09T19:04:55.564Z,1.20
2022-10-09T19:07:22.489Z,1.38
2022-10-09T19:09:53.553Z,1.25
2022-10-09T19:12:23.153Z,1.10
2022-10-09T19:14:49.849Z,1.17
2022-10-09T19:17:16.381Z,1.40
2022-10-09T19:19:42.910Z,1.27
2022-10-09T19:22:14.834Z,1.15
2022-10-09T19:24:43.037Z,1.50
2022-10-09T19:27:10.085Z,1.95
2022-10-09T19:29:36.814Z,1.70
2022-10-09T19:32:03.598Z,1.20
2022-10-09T19:34:30.392Z,1.50
2022-10-09T19:36:57.067Z,1.30
2022-10-09T19:39:23.830Z,1.48
2022-10-09T19:41:51.097Z,1.40
2022-10-09T19:44:18.501Z,1.50
2022-10-09T19:46:45.723Z,1.15
2022-10-09T19:49:12.346Z,1.42
2022-10-09T19:51:39.071Z,1.30
2022-10-09T19:54:07.344Z,2.38
2022-10-09T19:56:34.944Z,1.23
2022-10-09T19:59:03.519Z,1.30
2022-10-09T20:01:32.801Z,1.65
2022-10-09T20:04:02.438Z,1.20
2022-10-09T20:06:29.013Z,1.58
2022-10-09T20:08:56.477Z,1.33
2022-10-09T20:11:23.810Z,1.55
2022-10-09T20:13:55.502Z,1.48
2022-10-09T20:16:23.795Z,1.25
2022-10-09T20:18:50.353Z,2.25
2022-10-09T20:21:18.047Z,1.80
2022-10-09T20:23:45.203Z,1.45
2022-10-09T20:26:15.286Z,1.27
2022-10-09T20:28:43.609Z,1.50
2022-10-09T20:31:22.131Z,1.73
2022-10-09T20:33:49.859Z,1.77
2022-10-09T20:36:28.642Z,1.30
2022-10-09T20:38:57.193Z,2.00
2022-10-09T20:41:25.060Z,1.33
2022-10-09T20:43:53.302Z,1.52
2022-10-09T20:46:21.318Z,1.38
2022-10-09T20:48:48.002Z,1.50
2022-10-09T20:51:14.526Z,1.33
2022-10-09T20:53:41.235Z,1.70
2022-10-09T20:56:11.219Z,1.30
2022-10-09T20:58:37.863Z,1.65
2022-10-09T21:01:08.918Z,1.50
2022-10-09T21:03:37.551Z,2.03
2022-10-09T21:06:05.918Z,1.63
2022-10-09T21:08:32.924Z,1.23
2022-10-09T21:10:59.413Z,1.27
2022-10-09T21:13:26.703Z,1.38
2022-10-09T21:15:53.389Z,1.65
2022-10-09T21:18:20.097Z,1.30
2022-10-09T21:20:48.493Z,1.70
2022-10-09T21:23:17.312Z,1.40
2022-10-09T21:25:52.654Z,1.30
2022-10-09T21:28:20.941Z,1.40
2022-10-09T21:30:48.017Z,1.50
2022-10-09T21:33:15.863Z,1.35
2022-10-09T21:35:45.908Z,1.60
2022-10-09T21:38:19.387Z,1.10
2022-10-09T21:40:47.749Z,1.52
2022-10-09T21:43:14.767Z,1.38
2022-10-09T21:45:42.066Z,1.05
2022-10-09T21:48:14.297Z,1.20
2022-10-09T21:50:40.808Z,0.95
2022-10-09T21:53:07.794Z,1.40
2022-10-09T21:55:39.072Z,1.30
2022-10-09T21:58:06.172Z,1.23
2022-10-09T22:00:32.882Z,1.23
2022-10-09T22:02:59.611Z,1.40
2022-10-09T22:05:26.509Z,1.00
2022-10-09T22:07:53.075Z,1.27
2022-10-09T22:10:19.720Z,1.30
2022-10-09T22:12:46.275Z,1.20
2022-10-09T22:15:12.824Z,1.20
2022-10-09T22:17:39.537Z,1.35
2022-10-09T22:20:06.431Z,1.02
2022-10-09T22:22:32.914Z,1.52
2022-10-09T22:25:00.376Z,1.27
2022-10-09T22:27:27.005Z,1.17
2022-10-09T22:29:53.530Z,1.10
2022-10-09T22:32:20.121Z,1.42
2022-10-09T22:34:46.629Z,1.40
2022-10-09T22:37:13.142Z,0.93
2022-10-09T22:39:39.727Z,1.45
2022-10-09T22:42:06.357Z,1.05
2022-10-09T22:44:32.975Z,1.40
2022-10-09T22:46:59.503Z,1.20
2022-10-09T22:49:27.135Z,0.93
2022-10-09T22:51:53.673Z,1.17
2022-10-09T22:54:20.887Z,0.90
2022-10-09T22:56:47.731Z,1.30
2022-10-09T22:59:16.378Z,1.33
2022-10-09T23:02:00.949Z,1.52
2022-10-09T23:04:28.974Z,1.20
2022-10-09T23:06:57.822Z,1.17
2022-10-09T23:09:30.128Z,1.10
2022-10-09T23:11:57.630Z,1.10
2022-10-09T23:14:25.244Z,1.27
2022-10-09T23:16:52.009Z,1.60
2022-10-09T23:19:18.841Z,1.42
2022-10-09T23:21:46.404Z,1.17
2022-10-09T23:24:18.181Z,1.25
2022-10-09T23:26:46.277Z,1.30
2022-10-09T23:29:16.657Z,1.17
2022-10-09T23:31:44.060Z,0.95
2022-10-09T23:34:11.827Z,1.20
2022-10-09T23:36:38.696Z,1.25
2022-10-09T23:39:06.663Z,1.33
2022-10-09T23:41:34.378Z,1.08
2022-10-09T23:44:00.976Z,1.10
2022-10-09T23:46:32.803Z,1.02
2022-10-09T23:48:59.681Z,0.98
2022-10-09T23:51:27.641Z,1.15
2022-10-09T23:53:54.499Z,1.02
2022-10-09T23:56:27.485Z,0.90
2022-10-09T23:58:54.978Z,0.90
